createdAt,value
2022-12-15T00:00:44.418Z,20.65
2022-12-15T00:05:49.766Z,22.38
2022-12-15T00:10:52.313Z,24.57
2022-12-15T00:15:55.841Z,21.52
2022-12-15T00:20:58.207Z,19.63
2022-12-15T00:26:00.330Z,21.83
2022-12-15T00:31:04.011Z,19.13
2022-12-15T00:36:06.832Z,20.75
2022-12-15T00:41:08.974Z,19.65
2022-12-15T00:46:13.678Z,20.02
2022-12-15T00:51:16.697Z,20.05
2022-12-15T00:56:18.930Z,20.30
2022-12-15T01:01:22.656Z,23.85
2022-12-15T01:06:24.954Z,16.52
2022-12-15T01:11:29.815Z,18.58
2022-12-15T01:16:33.331Z,16.90
2022-12-15T01:21:35.464Z,21.27
2022-12-15T01:26:37.609Z,19.05
2022-12-15T01:31:41.181Z,15.60
2022-12-15T01:36:43.313Z,17.58
2022-12-15T01:41:45.409Z,19.58
2022-12-15T01:46:55.070Z,20.52
2022-12-15T01:52:00.291Z,17.02
2022-12-15T01:57:06.357Z,18.05
2022-12-15T02:02:10.855Z,17.20
2022-12-15T02:07:14.484Z,16.67
2022-12-15T02:12:28.355Z,15.50
2022-12-15T02:17:41.012Z,16.15
2022-12-15T02:23:00.188Z,19.65
2022-12-15T02:28:06.539Z,14.63
2022-12-15T02:33:17.260Z,15.00
2022-12-15T02:38:29.614Z,15.25
2022-12-15T02:43:36.485Z,16.35
2022-12-15T02:48:53.692Z,16.80
2022-12-15T02:54:22.539Z,17.20
2022-12-15T02:59:32.389Z,14.13
2022-12-15T03:04:35.925Z,15.85
2022-12-15T03:09:38.070Z,12.82
2022-12-15T03:14:40.171Z,10.90
2022-12-15T03:19:43.746Z,13.13
2022-12-15T03:24:45.902Z,13.13
2022-12-15T03:29:48.073Z,14.27
2022-12-15T03:34:51.612Z,15.27
2022-12-15T03:39:53.770Z,11.07
2022-12-15T03:44:55.879Z,10.65
2022-12-15T03:49:59.442Z,14.65
2022-12-15T03:55:01.683Z,14.20
2022-12-15T04:00:05.315Z,15.52
2022-12-15T04:05:12.562Z,16.80
2022-12-15T04:10:15.800Z,17.00
2022-12-15T04:15:17.963Z,18.30
2022-12-15T04:20:22.540Z,14.82
2022-12-15T04:25:26.598Z,15.85
2022-12-15T04:30:30.060Z,17.27
2022-12-15T04:35:34.885Z,13.82
2022-12-15T04:40:37.167Z,15.57
2022-12-15T04:45:39.250Z,17.10
2022-12-15T04:50:42.787Z,16.02
2022-12-15T04:55:44.897Z,16.70
2022-12-15T05:00:47.082Z,14.27
2022-12-15T05:05:50.650Z,17.42
2022-12-15T05:10:52.778Z,13.55
2022-12-15T05:15:54.962Z,16.23
2022-12-15T05:21:01.645Z,13.93
2022-12-15T05:26:03.826Z,12.55
2022-12-15T05:31:07.381Z,12.52
2022-12-15T05:36:11.076Z,11.75
2022-12-15T05:41:13.169Z,12.43
2022-12-15T05:46:15.360Z,16.08
2022-12-15T05:51:20.183Z,14.68
2022-12-15T05:56:22.284Z,13.63
2022-12-15T06:01:26.106Z,14.02
2022-12-15T06:06:29.843Z,13.55
2022-12-15T06:11:31.959Z,11.95
2022-12-15T06:16:39.577Z,15.07
2022-12-15T06:21:46.474Z,15.48
2022-12-15T06:26:49.687Z,13.13
2022-12-15T06:31:52.372Z,30.13
2022-12-15T06:36:55.984Z,16.17
2022-12-15T06:41:58.142Z,15.95
2022-12-15T06:47:03.303Z,16.40
2022-12-15T06:52:08.024Z,16.40
2022-12-15T06:57:10.275Z,17.20
2022-12-15T07:02:17.038Z,16.40
2022-12-15T07:07:20.758Z,12.45
2022-12-15T07:12:22.844Z,14.75
2022-12-15T07:17:24.961Z,14.68
2022-12-15T07:22:30.086Z,16.45
2022-12-15T07:27:32.201Z,15.43
2022-12-15T07:32:34.534Z,13.63
2022-12-15T07:37:38.154Z,12.23
2022-12-15T07:42:40.426Z,16.52
2022-12-15T07:47:42.730Z,18.33
2022-12-15T07:52:46.444Z,15.20
2022-12-15T07:57:48.605Z,17.38
2022-12-15T08:02:50.963Z,14.57
2022-12-15T08:07:54.686Z,12.82
2022-12-15T08:12:56.861Z,16.08
2022-12-15T08:17:59.034Z,17.88
2022-12-15T08:23:02.685Z,17.40
2022-12-15T08:28:05.103Z,15.50
2022-12-15T08:33:07.408Z,13.15
2022-12-15T08:38:11.014Z,15.90
2022-12-15T08:43:13.205Z,20.42
2022-12-15T08:48:15.545Z,10.45
2022-12-15T08:53:41.443Z,12.80
2022-12-15T08:58:41.888Z,12.93
2022-12-15T09:03:44.301Z,18.98
2022-12-15T09:08:48.563Z,11.63
2022-12-15T09:13:52.841Z,72.00
2022-12-15T09:18:56.617Z,20.45
2022-12-15T09:24:01.938Z,19.05
2022-12-15T09:29:04.305Z,13.90
2022-12-15T09:34:06.498Z,11.57
2022-12-15T09:39:10.356Z,13.35
2022-12-15T09:44:14.797Z,12.85
2022-12-15T09:49:36.683Z,15.02
2022-12-15T09:54:41.142Z,13.00
2022-12-15T09:59:57.676Z,17.00
2022-12-15T10:05:12.299Z,12.80
2022-12-15T10:10:25.610Z,13.85
2022-12-15T10:15:33.459Z,17.25
2022-12-15T10:20:35.790Z,13.32
2022-12-15T10:25:39.848Z,11.85
2022-12-15T10:30:50.472Z,17.60
2022-12-15T10:35:53.882Z,14.50
2022-12-15T10:41:02.300Z,11.23
2022-12-15T10:46:11.502Z,11.30
2022-12-15T10:51:20.269Z,12.27
2022-12-15T10:56:32.769Z,12.75
2022-12-15T11:01:36.194Z,14.85
2022-12-15T11:06:42.711Z,9.02
2022-12-15T11:11:48.455Z,11.25
2022-12-15T11:16:55.376Z,11.30
2022-12-15T11:22:01.567Z,10.35
2022-12-15T11:27:15.457Z,8.82
2022-12-15T11:32:21.140Z,11.73
2022-12-15T11:37:40.166Z,9.20
2022-12-15T11:42:57.544Z,13.88
2022-12-15T11:48:09.992Z,14.38
2022-12-15T11:53:31.048Z,11.13
2022-12-15T11:58:50.845Z,10.20
2022-12-15T12:04:06.727Z,10.43
2022-12-15T12:09:24.545Z,10.93
2022-12-15T12:14:43.572Z,10.93
2022-12-15T12:19:50.931Z,12.25
2022-12-15T12:24:58.591Z,11.38
2022-12-15T12:30:05.193Z,14.88
2022-12-15T12:35:31.312Z,12.90
2022-12-15T12:40:52.078Z,11.77
2022-12-15T12:46:01.010Z,13.65
2022-12-15T12:51:28.926Z,13.75
2022-12-15T12:56:37.743Z,9.25
2022-12-15T13:01:41.500Z,8.05
2022-12-15T13:07:02.960Z,12.00
2022-12-15T13:12:49.820Z,12.80
2022-12-15T13:17:48.854Z,7.25
2022-12-15T13:22:52.141Z,8.00
2022-12-15T13:27:58.759Z,7.55
2022-12-15T13:33:18.541Z,10.13
2022-12-15T13:38:40.734Z,8.63
2022-12-15T13:43:48.212Z,8.95
2022-12-15T13:49:01.078Z,10.07
2022-12-15T13:54:13.407Z,10.77
2022-12-15T13:59:26.312Z,13.35
2022-12-15T14:04:30.026Z,9.80
2022-12-15T14:09:35.390Z,12.85
2022-12-15T14:14:45.756Z,9.05
2022-12-15T14:19:52.824Z,10.18
2022-12-15T14:25:00.891Z,10.20
2022-12-15T14:30:11.591Z,10.80
2022-12-15T14:35:22.786Z,12.20
2022-12-15T14:40:28.911Z,11.48
2022-12-15T14:45:32.456Z,11.90
2022-12-15T14:50:36.926Z,15.05
2022-12-15T14:55:40.351Z,12.40
2022-12-15T15:00:51.591Z,18.40
2022-12-15T15:06:00.017Z,12.13
2022-12-15T15:11:21.355Z,17.40
2022-12-15T15:16:23.702Z,14.23
2022-12-15T15:21:30.797Z,14.57
2022-12-15T15:26:33.009Z,14.60
2022-12-15T15:31:41.879Z,15.80
2022-12-15T15:36:45.978Z,13.43
2022-12-15T15:41:48.064Z,11.77
2022-12-15T15:46:52.387Z,12.45
2022-12-15T15:51:56.958Z,15.48
2022-12-15T15:56:59.171Z,22.27
2022-12-15T16:02:01.369Z,25.13
2022-12-15T16:07:05.611Z,20.40
2022-12-15T16:12:26.680Z,16.17
2022-12-15T16:17:28.842Z,18.08
2022-12-15T16:22:32.625Z,16.30
2022-12-15T16:27:34.741Z,21.08
2022-12-15T16:32:36.959Z,17.10
2022-12-15T16:37:42.425Z,19.13
2022-12-15T16:42:48.519Z,21.95
2022-12-15T16:47:52.192Z,21.38
2022-12-15T16:52:55.905Z,19.48
2022-12-15T16:58:00.541Z,19.42
2022-12-15T17:03:03.764Z,24.60
2022-12-15T17:08:13.882Z,21.38
2022-12-15T17:13:28.520Z,21.48
2022-12-15T17:18:34.577Z,20.70
2022-12-15T17:23:39.723Z,21.00
2022-12-15T17:28:41.949Z,22.80
2022-12-15T17:33:44.262Z,21.88
2022-12-15T17:38:57.798Z,21.88
2022-12-15T17:44:31.121Z,21.10
2022-12-15T17:49:22.177Z,18.90
2022-12-15T17:54:25.734Z,22.42
2022-12-15T17:59:27.856Z,22.25
2022-12-15T18:04:34.286Z,21.27
2022-12-15T18:09:38.375Z,25.02
2022-12-15T18:14:40.623Z,24.02
2022-12-15T18:19:42.740Z,24.23
2022-12-15T18:24:46.457Z,19.77
2022-12-15T18:29:48.652Z,21.90
2022-12-15T18:34:50.786Z,26.73
2022-12-15T18:39:57.112Z,21.75
2022-12-15T18:45:03.428Z,21.20
2022-12-15T18:50:06.168Z,26.20
2022-12-15T18:55:25.379Z,26.40
2022-12-15T19:00:36.833Z,27.77
2022-12-15T19:05:44.683Z,22.05
2022-12-15T19:10:57.346Z,23.02
2022-12-15T19:16:08.812Z,23.52
2022-12-15T19:21:23.242Z,23.77
2022-12-15T19:26:31.703Z,22.02
2022-12-15T19:31:39.499Z,22.45
2022-12-15T19:36:47.327Z,23.15
2022-12-15T19:42:12.982Z,25.25
2022-12-15T19:47:23.995Z,25.08
2022-12-15T19:52:32.357Z,25.45
2022-12-15T19:57:42.012Z,30.73
2022-12-15T20:02:52.817Z,27.05
2022-12-15T20:08:02.968Z,26.08
2022-12-15T20:13:20.241Z,25.42
2022-12-15T20:18:31.775Z,28.67
2022-12-15T20:23:55.889Z,25.45
2022-12-15T20:29:03.278Z,24.73
2022-12-15T20:34:14.560Z,30.13
2022-12-15T20:39:25.300Z,25.42
2022-12-15T20:44:29.156Z,27.25
2022-12-15T20:49:34.419Z,26.75
2022-12-15T20:54:38.005Z,26.98
2022-12-15T20:59:45.441Z,28.02
2022-12-15T21:04:53.075Z,26.45
2022-12-15T21:15:20.227Z,25.00
2022-12-15T21:20:29.197Z,24.77
2022-12-15T21:25:37.821Z,23.50
2022-12-15T21:30:42.338Z,23.10
2022-12-15T21:35:46.446Z,24.63
2022-12-15T21:40:48.578Z,25.73
2022-12-15T21:45:52.157Z,27.10
2022-12-15T21:50:54.333Z,26.67
2022-12-15T21:55:56.619Z,24.88
2022-12-15T22:01:01.339Z,26.38
2022-12-15T22:06:03.571Z,24.98
2022-12-15T22:11:12.330Z,28.08
2022-12-15T22:16:16.860Z,29.20
2022-12-15T22:21:19.013Z,32.10
2022-12-15T22:26:23.282Z,28.67
2022-12-15T22:31:27.200Z,22.30
2022-12-15T22:36:29.368Z,23.98
2022-12-15T22:41:32.738Z,26.88
2022-12-15T22:46:36.705Z,33.35
2022-12-15T22:51:42.000Z,24.80
2022-12-15T22:56:44.275Z,27.40
2022-12-15T23:01:47.945Z,26.40
2022-12-15T23:06:50.337Z,33.22
2022-12-15T23:11:54.232Z,29.75
2022-12-15T23:16:58.661Z,29.40
2022-12-15T23:22:00.828Z,29.58
2022-12-15T23:27:03.012Z,29.75
2022-12-15T23:32:06.608Z,30.45
2022-12-15T23:37:08.662Z,29.38
2022-12-15T23:42:10.744Z,28.17
2022-12-15T23:47:14.251Z,29.35
2022-12-15T23:52:16.374Z,28.38
2022-12-15T23:57:18.545Z,30.67
